Time;durP1;ratioP1;P1;durP2;ratioP2;P2;SDS_P1;SDS_P2;PMS_P1;PMS_P2;Temp;Humidity;BMP_temperature;BMP_pressure;BME280_temperature;BME280_humidity;BME280_pressure;Samples;Min_cycle;Max_cycle;Signal;HPM_P1;HPM_P2
2023/03/08 00:03:20;;;;;;;;;;;;;;;-0.15;100.00;100013.69;10464850;28;19932;-66
2023/03/08 00:08:22;;;;;;;;;;;;;;;-0.25;100.00;100010.53;10443786;28;19925;-66
2023/03/08 00:13:25;;;;;;;;;;;;;;;-0.28;100.00;100013.16;10439933;28;20031;-66
2023/03/08 00:18:27;;;;;;;;;;;;;;;-0.25;100.00;100024.22;10464259;28;20264;-66
2023/03/08 00:23:29;;;;;;;;;;;;;;;-0.24;100.00;100017.34;10409389;28;19925;-65
2023/03/08 00:28:31;;;;;;;;;;;;;;;-0.38;100.00;100027.97;10423274;28;19975;-65
2023/03/08 00:33:34;;;;;;;;;;;;;;;-0.44;100.00;100020.41;10422519;28;20292;-66
2023/03/08 00:38:36;;;;;;;;;;;;;;;-0.64;100.00;100016.59;10461437;28;19948;-65
2023/03/08 00:43:41;;;;;;;;;;;;;;;-0.40;100.00;100015.16;10464059;28;19929;-65
2023/03/08 00:48:43;;;;;;;;;;;;;;;-0.40;100.00;100017.72;10463540;28;19924;-65
2023/03/08 00:53:45;;;;;;;;;;;;;;;-0.56;100.00;100021.53;10461139;28;19936;-65
2023/03/08 00:58:47;;;;;;;;;;;;;;;-0.38;100.00;100010.81;10422023;28;19925;-65
2023/03/08 01:03:49;;;;;;;;;;;;;;;-0.38;100.00;100000.53;10421320;28;19932;-65
2023/03/08 01:08:52;;;;;;;;;;;;;;;-0.35;100.00;100006.47;10425529;28;20032;-65
2023/03/08 01:13:54;;;;;;;;;;;;;;;-0.27;100.00;99992.56;10456735;28;20331;-65
2023/03/08 01:18:56;;;;;;;;;;;;;;;-0.16;100.00;99984.53;10420622;28;19925;-65
2023/03/08 01:23:58;;;;;;;;;;;;;;;-0.25;100.00;99984.78;10420003;28;19979;-65
2023/03/08 01:29:01;;;;;;;;;;;;;;;-0.52;100.00;99973.44;10421261;28;19925;-65
2023/03/08 01:34:03;;;;;;;;;;;;;;;-0.21;100.00;99964.06;10420583;28;19932;-65
2023/03/08 01:39:05;;;;;;;;;;;;;;;-0.20;100.00;99952.91;10402981;28;19975;-65
2023/03/08 01:44:11;;;;;;;;;;;;;;;-0.23;100.00;99960.69;10431320;28;19925;-65
2023/03/08 01:49:14;;;;;;;;;;;;;;;-0.16;100.00;99938.22;10443132;28;20040;-65
2023/03/08 01:54:18;;;;;;;;;;;;;;;-0.32;100.00;99937.81;10443553;28;19932;-65
2023/03/08 01:59:21;;;;;;;;;;;;;;;-0.41;100.00;99928.56;10442543;28;19929;-66
2023/03/08 02:04:24;;;;;;;;;;;;;;;-0.26;100.00;99921.34;10443076;28;19928;-66
2023/03/08 02:09:26;;;;;;;;;;;;;;;-0.43;100.00;99903.78;10460596;28;19924;-66
2023/03/08 02:14:28;;;;;;;;;;;;;;;-0.38;100.00;99905.34;10459496;28;19925;-66
2023/03/08 02:19:30;;;;;;;;;;;;;;;-0.26;100.00;99908.50;10441515;28;20273;-66
2023/03/08 02:24:32;;;;;;;;;;;;;;;-0.28;100.00;99899.97;10459530;28;19992;-66
2023/03/08 02:29:34;;;;;;;;;;;;;;;-0.17;100.00;99895.34;10459860;28;19936;-66
2023/03/08 02:34:37;;;;;;;;;;;;;;;-0.21;100.00;99889.47;10458849;28;19925;-66
2023/03/08 02:39:39;;;;;;;;;;;;;;;-0.18;100.00;99891.13;10458742;28;19978;-66
2023/03/08 02:44:41;;;;;;;;;;;;;;;-0.16;100.00;99870.50;10458246;28;19925;-66
2023/03/08 02:49:43;;;;;;;;;;;;;;;-0.20;100.00;99870.56;10458367;28;19987;-67
2023/03/08 02:54:45;;;;;;;;;;;;;;;-0.27;100.00;99863.06;10440508;28;19936;-66
2023/03/08 02:59:48;;;;;;;;;;;;;;;0.02;100.00;99874.25;10456840;28;20429;-66
2023/03/08 03:04:50;;;;;;;;;;;;;;;-0.10;100.00;99862.59;10455767;28;19925;-66
2023/03/08 03:09:52;;;;;;;;;;;;;;;-0.09;100.00;99856.56;10457812;28;19924;-66
2023/03/08 03:14:54;;;;;;;;;;;;;;;-0.10;100.00;99844.56;10457484;28;20391;-66
2023/03/08 03:19:56;;;;;;;;;;;;;;;-0.08;100.00;99850.53;10457338;28;20291;-67
2023/03/08 03:24:59;;;;;;;;;;;;;;;0.02;100.00;99851.09;10456642;28;20384;-66
2023/03/08 03:30:01;;;;;;;;;;;;;;;-0.10;100.00;99860.00;10443696;23;20305;-63
2023/03/08 03:35:04;;;;;;;;;;;;;;;-0.26;100.00;99860.44;10414454;28;19925;-63
2023/03/08 03:40:06;;;;;;;;;;;;;;;0.06;100.00;99829.53;10414127;28;20339;-63
2023/03/08 03:45:09;;;;;;;;;;;;;;;-0.05;100.00;99834.97;10457325;28;19925;-63
2023/03/08 03:50:11;;;;;;;;;;;;;;;0.02;100.00;99815.94;10456687;28;19924;-63
2023/03/08 03:55:13;;;;;;;;;;;;;;;0.02;100.00;99809.91;10457059;28;19975;-63
2023/03/08 04:00:16;;;;;;;;;;;;;;;0.23;100.00;99803.28;10456995;28;19925;-63
2023/03/08 04:05:18;;;;;;;;;;;;;;;0.33;100.00;99790.06;10456123;28;19925;-63
2023/03/08 04:10:20;;;;;;;;;;;;;;;0.23;100.00;99796.41;10456183;28;19929;-63
2023/03/08 04:15:22;;;;;;;;;;;;;;;0.31;100.00;99791.03;10456607;28;19925;-63
2023/03/08 04:20:24;;;;;;;;;;;;;;;0.35;100.00;99792.59;10438235;28;19993;-63
2023/03/08 04:25:26;;;;;;;;;;;;;;;0.33;100.00;99791.81;10455944;28;20426;-63
2023/03/08 04:30:29;;;;;;;;;;;;;;;0.31;100.00;99767.84;10454612;28;19924;-63
2023/03/08 04:35:31;;;;;;;;;;;;;;;0.44;100.00;99765.72;10455508;28;19971;-63
2023/03/08 04:41:00;;;;;;;;;;;;;;;0.61;100.00;99775.50;10457946;28;20371;-63
2023/03/08 04:45:56;;;;;;;;;;;;;;;0.61;100.00;99762.63;10463219;28;20372;-63
2023/03/08 04:50:59;;;;;;;;;;;;;;;0.52;100.00;99759.44;10444746;28;19928;-63
2023/03/08 04:56:01;;;;;;;;;;;;;;;0.77;100.00;99742.31;10462407;28;19925;-63
2023/03/08 05:01:09;;;;;;;;;;;;;;;0.78;100.00;99734.53;10462416;28;20034;-63
2023/03/08 05:06:12;;;;;;;;;;;;;;;0.56;100.00;99718.97;10462284;28;19928;-63
2023/03/08 05:11:16;;;;;;;;;;;;;;;0.44;100.00;99711.63;10462875;28;20020;-62
2023/03/08 05:16:18;;;;;;;;;;;;;;;0.61;100.00;99695.63;10443673;28;19924;-62
2023/03/08 05:21:21;;;;;;;;;;;;;;;0.51;100.00;99703.66;10461849;28;20011;-63
2023/03/08 05:26:23;;;;;;;;;;;;;;;0.64;100.00;99690.34;10461701;28;19932;-63
2023/03/08 05:31:26;;;;;;;;;;;;;;;0.44;100.00;99688.44;10442911;28;19948;-63
2023/03/08 05:36:28;;;;;;;;;;;;;;;0.41;100.00;99671.38;10461174;28;20279;-63
2023/03/08 05:41:30;;;;;;;;;;;;;;;0.20;100.00;99670.34;10460460;28;19925;-63
2023/03/08 05:46:32;;;;;;;;;;;;;;;0.60;100.00;99658.72;10460832;28;20268;-63
2023/03/08 05:51:34;;;;;;;;;;;;;;;0.44;100.00;99652.41;10459978;28;20456;-62
2023/03/08 05:56:37;;;;;;;;;;;;;;;0.79;100.00;99640.91;10459778;28;19935;-62
2023/03/08 06:01:39;;;;;;;;;;;;;;;0.64;100.00;99629.41;10460328;28;19925;-63
2023/03/08 06:06:41;;;;;;;;;;;;;;;0.55;100.00;99614.25;10426746;28;20000;-62
2023/03/08 06:11:43;;;;;;;;;;;;;;;0.43;100.00;99612.09;10442224;28;19990;-62
2023/03/08 06:16:47;;;;;;;;;;;;;;;0.58;100.00;99605.59;10458917;28;19924;-62
2023/03/08 06:21:49;;;;;;;;;;;;;;;0.53;100.00;99600.59;10460115;28;19931;-62
2023/03/08 06:26:54;;;;;;;;;;;;;;;0.47;100.00;99593.06;10458947;28;19931;-62
2023/03/08 06:31:56;;;;;;;;;;;;;;;0.61;100.00;99590.03;10424754;28;19929;-62
2023/03/08 06:36:58;;;;;;;;;;;;;;;0.52;100.00;99591.16;10459437;28;19975;-62
2023/03/08 06:42:01;;;;;;;;;;;;;;;0.80;100.00;99591.03;10457950;28;19986;-62
2023/03/08 06:47:03;;;;;;;;;;;;;;;0.70;100.00;99589.69;10458474;28;19974;-62
2023/03/08 06:52:06;;;;;;;;;;;;;;;0.74;100.00;99586.13;10458445;28;19929;-62
2023/03/08 06:57:08;;;;;;;;;;;;;;;0.68;100.00;99578.59;10433972;28;19924;-62
2023/03/08 07:02:10;;;;;;;;;;;;;;;0.72;100.00;99587.88;10457804;28;20046;-62
2023/03/08 07:07:12;;;;;;;;;;;;;;;0.81;100.00;99579.84;10457001;28;20329;-62
2023/03/08 07:12:14;;;;;;;;;;;;;;;1.03;100.00;99574.72;10456516;28;19929;-63
2023/03/08 07:17:17;;;;;;;;;;;;;;;0.72;100.00;99573.28;10458092;28;19928;-63
2023/03/08 07:22:19;;;;;;;;;;;;;;;1.04;100.00;99575.53;10457298;28;20282;-63
2023/03/08 07:27:21;;;;;;;;;;;;;;;1.10;100.00;99568.41;10455393;28;19940;-62
2023/03/08 07:32:27;;;;;;;;;;;;;;;1.07;100.00;99565.97;10456966;28;19925;-63
2023/03/08 07:37:29;;;;;;;;;;;;;;;0.97;100.00;99572.34;10456853;28;20011;-62
2023/03/08 07:42:32;;;;;;;;;;;;;;;1.08;100.00;99559.91;10456186;28;20380;-63
2023/03/08 07:47:34;;;;;;;;;;;;;;;0.88;100.00;99555.50;10456750;28;20261;-63
2023/03/08 07:52:36;;;;;;;;;;;;;;;0.80;100.00;99548.97;10456568;28;19925;-63
2023/03/08 07:57:38;;;;;;;;;;;;;;;0.89;100.00;99543.44;10454287;28;19928;-63
2023/03/08 08:02:41;;;;;;;;;;;;;;;1.00;100.00;99540.50;10456444;28;19924;-63
2023/03/08 08:07:44;;;;;;;;;;;;;;;1.02;100.00;99536.94;10456125;28;19924;-63
2023/03/08 08:12:46;;;;;;;;;;;;;;;0.89;100.00;99534.00;10454432;28;20311;-63
2023/03/08 08:17:48;;;;;;;;;;;;;;;0.94;100.00;99526.06;10458190;28;19925;-63
2023/03/08 08:22:52;;;;;;;;;;;;;;;1.19;100.00;99512.25;10463691;28;19932;-63
2023/03/08 08:27:54;;;;;;;;;;;;;;;1.09;100.00;99504.88;10463041;28;19947;-63
2023/03/08 08:32:56;;;;;;;;;;;;;;;1.04;100.00;99517.13;10462852;28;20372;-63
2023/03/08 08:37:58;;;;;;;;;;;;;;;1.14;100.00;99496.94;10458143;28;19971;-63
2023/03/08 08:43:01;;;;;;;;;;;;;;;0.90;100.00;99501.34;10463377;28;20023;-62
2023/03/08 08:48:04;;;;;;;;;;;;;;;0.96;100.00;99495.94;10454566;28;19925;-63
2023/03/08 08:53:07;;;;;;;;;;;;;;;1.08;100.00;99487.72;10461949;28;19943;-63
2023/03/08 08:58:10;;;;;;;;;;;;;;;1.16;100.00;99478.84;10462477;28;20395;-63
2023/03/08 09:03:12;;;;;;;;;;;;;;;0.87;100.00;99470.53;10445592;28;19980;-63
2023/03/08 09:08:14;;;;;;;;;;;;;;;0.74;100.00;99473.59;10470375;28;19932;-62
2023/03/08 09:13:16;;;;;;;;;;;;;;;1.23;100.00;99473.41;10461059;28;19935;-62
2023/03/08 09:18:19;;;;;;;;;;;;;;;1.13;100.00;99466.94;10460334;28;20445;-62
2023/03/08 09:23:21;;;;;;;;;;;;;;;1.14;100.00;99453.13;10459296;28;19932;-61
2023/03/08 09:28:23;;;;;;;;;;;;;;;1.25;100.00;99456.13;10454513;28;19925;-62
2023/03/08 09:33:25;;;;;;;;;;;;;;;1.00;100.00;99440.78;10459037;28;19924;-61
2023/03/08 09:38:27;;;;;;;;;;;;;;;1.06;100.00;99434.53;10456259;28;19955;-62
2023/03/08 09:43:48;;;;;;;;;;;;;;;1.20;100.00;99431.44;10457312;28;19979;-61
2023/03/08 09:48:51;;;;;;;;;;;;;;;1.25;100.00;99422.59;10435404;28;19925;-62
2023/03/08 09:53:54;;;;;;;;;;;;;;;1.32;100.00;99414.63;10440087;28;19925;-62
2023/03/08 09:59:14;;;;;;;;;;;;;;;1.51;100.00;99397.47;10412251;28;20330;-62
2023/03/08 10:04:28;;;;;;;;;;;;;;;1.80;100.00;99390.19;10421704;28;19929;-62
2023/03/08 10:09:43;;;;;;;;;;;;;;;1.57;100.00;99384.31;10420890;28;19956;-61
2023/03/08 10:14:49;;;;;;;;;;;;;;;1.91;100.00;99382.00;10434238;28;19987;-62
2023/03/08 10:19:56;;;;;;;;;;;;;;;2.06;100.00;99380.50;10448681;28;19929;-63
2023/03/08 10:25:17;;;;;;;;;;;;;;;1.96;100.00;99386.03;10444462;28;19983;-64
2023/03/08 10:30:20;;;;;;;;;;;;;;;2.09;100.00;99383.75;10455130;28;19928;-62
2023/03/08 10:35:29;;;;;;;;;;;;;;;2.51;100.00;99376.72;10456577;28;19970;-62
2023/03/08 10:40:32;;;;;;;;;;;;;;;2.76;100.00;99366.88;10438856;28;19925;-62
2023/03/08 10:45:34;;;;;;;;;;;;;;;3.09;100.00;99367.88;10455513;28;20281;-62
2023/03/08 10:50:36;;;;;;;;;;;;;;;3.13;100.00;99366.84;10454944;28;19928;-62
2023/03/08 10:55:43;;;;;;;;;;;;;;;3.11;100.00;99341.06;10455642;28;20333;-62
2023/03/08 11:00:45;;;;;;;;;;;;;;;2.60;100.00;99328.00;10454660;28;19925;-62
2023/03/08 11:06:04;;;;;;;;;;;;;;;2.70;100.00;99341.31;10437633;28;19932;-62
2023/03/08 11:11:08;;;;;;;;;;;;;;;2.78;100.00;99338.38;10436658;28;19925;-63
2023/03/08 11:16:10;;;;;;;;;;;;;;;2.46;100.00;99337.34;10453886;28;20003;-63
2023/03/08 11:21:15;;;;;;;;;;;;;;;2.69;100.00;99336.22;10456247;28;20019;-62
2023/03/08 11:26:20;;;;;;;;;;;;;;;2.46;100.00;99338.16;10437165;28;20278;-63
2023/03/08 11:31:27;;;;;;;;;;;;;;;2.89;100.00;99340.41;10457116;28;19928;-63
2023/03/08 11:36:34;;;;;;;;;;;;;;;2.62;100.00;99337.44;10437401;28;19999;-63
2023/03/08 11:41:42;;;;;;;;;;;;;;;2.42;100.00;99339.19;10455151;28;19924;-63
2023/03/08 11:46:47;;;;;;;;;;;;;;;2.62;100.00;99333.09;10456706;28;20288;-62
2023/03/08 11:51:59;;;;;;;;;;;;;;;2.84;100.00;99321.72;10466350;28;19925;-63
2023/03/08 11:57:06;;;;;;;;;;;;;;;2.49;100.00;99313.91;10453288;28;19925;-63
2023/03/08 12:02:11;;;;;;;;;;;;;;;2.49;100.00;99309.59;10450742;28;20428;-63
2023/03/08 12:07:34;;;;;;;;;;;;;;;2.48;100.00;99310.50;10467463;28;19990;-64
2023/03/08 12:12:38;;;;;;;;;;;;;;;2.37;100.00;99290.34;10453083;28;19932;-63
2023/03/08 12:17:45;;;;;;;;;;;;;;;2.89;100.00;99293.88;10467152;28;19925;-63
2023/03/08 12:22:47;;;;;;;;;;;;;;;2.79;100.00;99289.19;10449450;28;19991;-63
2023/03/08 12:27:54;;;;;;;;;;;;;;;2.57;100.00;99291.13;10467473;28;19925;-63
2023/03/08 12:32:57;;;;;;;;;;;;;;;2.49;100.00;99278.59;10464670;28;20024;-62
2023/03/08 12:38:18;;;;;;;;;;;;;;;2.81;100.00;99265.00;10451999;28;20315;-62
2023/03/08 12:43:20;;;;;;;;;;;;;;;3.00;100.00;99259.75;10469280;28;20366;-63
2023/03/08 12:48:23;;;;;;;;;;;;;;;2.65;100.00;99265.75;10469616;28;19924;-62
2023/03/08 12:53:34;;;;;;;;;;;;;;;2.81;100.00;99255.50;10443823;28;19924;-62
2023/03/08 12:58:37;;;;;;;;;;;;;;;2.73;100.00;99275.72;10463257;28;20330;-63
2023/03/08 13:03:40;;;;;;;;;;;;;;;3.03;100.00;99259.59;10464955;28;19924;-63
2023/03/08 13:08:46;;;;;;;;;;;;;;;2.99;100.00;99266.66;10462457;28;19979;-63
2023/03/08 13:13:54;;;;;;;;;;;;;;;2.97;100.00;99264.16;10443789;28;19979;-63
2023/03/08 13:19:02;;;;;;;;;;;;;;;2.84;100.00;99245.03;10441922;28;19924;-62
2023/03/08 13:24:07;;;;;;;;;;;;;;;3.23;100.00;99212.84;10445060;28;19971;-63
2023/03/08 13:29:11;;;;;;;;;;;;;;;3.33;100.00;99236.50;10462089;28;19928;-63
2023/03/08 13:34:21;;;;;;;;;;;;;;;3.21;100.00;99226.78;10461731;28;19929;-63
2023/03/08 13:39:25;;;;;;;;;;;;;;;3.05;100.00;99224.16;10444147;28;19931;-63
2023/03/08 13:44:27;;;;;;;;;;;;;;;2.71;100.00;99212.94;10460987;28;20339;-62
2023/03/08 13:49:31;;;;;;;;;;;;;;;3.16;100.00;99211.47;10460753;28;19925;-63
2023/03/08 13:54:34;;;;;;;;;;;;;;;3.08;100.00;99216.25;10443024;28;19982;-63
2023/03/08 13:59:37;;;;;;;;;;;;;;;2.90;100.00;99242.09;10443450;28;19932;-63
2023/03/08 14:04:41;;;;;;;;;;;;;;;2.78;100.00;99240.16;10460900;28;19925;-62
2023/03/08 14:09:43;;;;;;;;;;;;;;;2.81;100.00;99233.97;10460076;28;20376;-63
2023/03/08 14:14:46;;;;;;;;;;;;;;;3.19;100.00;99219.09;10442965;28;20391;-63
2023/03/08 14:19:59;;;;;;;;;;;;;;;3.27;100.00;99227.28;10425564;28;20398;-63
2023/03/08 14:25:01;;;;;;;;;;;;;;;3.28;100.00;99213.44;10442550;28;20012;-63
2023/03/08 14:30:17;;;;;;;;;;;;;;;3.21;100.00;99213.84;10441869;28;19924;-63
2023/03/08 14:35:21;;;;;;;;;;;;;;;3.33;100.00;99202.88;10459014;28;20364;-64
2023/03/08 14:40:25;;;;;;;;;;;;;;;3.02;100.00;99214.78;10441675;28;19932;-63
2023/03/08 14:45:31;;;;;;;;;;;;;;;2.90;100.00;99205.91;10459412;28;19929;-63
2023/03/08 14:50:33;;;;;;;;;;;;;;;3.22;100.00;99179.31;10458599;28;19931;-63
2023/03/08 14:55:37;;;;;;;;;;;;;;;3.31;100.00;99179.66;10417287;28;19925;-64
2023/03/08 15:00:52;;;;;;;;;;;;;;;3.27;100.00;99190.25;10416626;28;19929;-63
2023/03/08 15:05:54;;;;;;;;;;;;;;;3.04;100.00;99191.44;10414867;28;19925;-63
2023/03/08 15:10:56;;;;;;;;;;;;;;;3.42;100.00;99206.72;10419703;28;19924;-63
2023/03/08 15:15:58;;;;;;;;;;;;;;;3.06;100.00;99208.56;10456261;28;19925;-63
2023/03/08 15:21:01;;;;;;;;;;;;;;;3.21;100.00;99211.25;10456008;28;20012;-64
2023/03/08 15:26:04;;;;;;;;;;;;;;;2.97;100.00;99216.78;10454388;28;19931;-63
2023/03/08 15:31:07;;;;;;;;;;;;;;;3.04;100.00;99220.72;10437356;28;19928;-63
2023/03/08 15:36:11;;;;;;;;;;;;;;;2.87;100.00;99223.34;10456302;28;20290;-63
2023/03/08 15:41:14;;;;;;;;;;;;;;;2.91;100.00;99217.94;10437963;28;19932;-64
2023/03/08 15:46:16;;;;;;;;;;;;;;;2.84;100.00;99218.31;10388675;23;19932;-63
2023/03/08 15:51:20;;;;;;;;;;;;;;;2.84;100.00;99214.00;10413455;28;19972;-63
2023/03/08 15:56:24;;;;;;;;;;;;;;;2.47;100.00;99212.41;10414002;28;20291;-63
2023/03/08 16:01:26;;;;;;;;;;;;;;;2.65;100.00;99210.66;10415104;28;19979;-63
2023/03/08 16:06:28;;;;;;;;;;;;;;;2.52;100.00;99203.53;10415184;28;19929;-63
2023/03/08 16:11:31;;;;;;;;;;;;;;;2.56;100.00;99201.63;10413188;28;20347;-63
2023/03/08 16:16:34;;;;;;;;;;;;;;;2.45;100.00;99202.16;10414816;28;19932;-64
2023/03/08 16:21:46;;;;;;;;;;;;;;;2.37;100.00;99215.44;10413445;28;19948;-63
2023/03/08 16:26:49;;;;;;;;;;;;;;;2.54;100.00;99198.25;10395973;28;19953;-63
2023/03/08 16:31:51;;;;;;;;;;;;;;;2.38;100.00;99208.53;10411287;28;19925;-63
2023/03/08 16:36:53;;;;;;;;;;;;;;;2.36;100.00;99203.44;10400683;28;19976;-63
2023/03/08 16:41:56;;;;;;;;;;;;;;;2.27;100.00;99198.75;10421769;28;19932;-63
2023/03/08 16:46:58;;;;;;;;;;;;;;;2.26;100.00;99201.38;10420944;28;20269;-63
2023/03/08 16:52:00;;;;;;;;;;;;;;;2.15;100.00;99196.72;10419929;28;19930;-63
2023/03/08 16:57:04;;;;;;;;;;;;;;;2.02;100.00;99201.66;10421560;28;20039;-63
2023/03/08 17:02:20;;;;;;;;;;;;;;;2.02;100.00;99194.75;10420225;28;19952;-63
2023/03/08 17:07:22;;;;;;;;;;;;;;;2.14;100.00;99200.25;10387487;28;20369;-63
2023/03/08 17:12:24;;;;;;;;;;;;;;;2.08;100.00;99195.34;10402378;28;19932;-63
2023/03/08 17:17:26;;;;;;;;;;;;;;;1.94;100.00;99196.84;10421493;28;19925;-63
2023/03/08 17:22:32;;;;;;;;;;;;;;;1.83;100.00;99199.09;10420643;28;20376;-63
2023/03/08 17:27:34;;;;;;;;;;;;;;;1.90;100.00;99203.09;10418792;28;19971;-63
2023/03/08 17:32:38;;;;;;;;;;;;;;;2.01;100.00;99210.31;10401886;28;20454;-63
2023/03/08 17:37:40;;;;;;;;;;;;;;;1.94;100.00;99214.91;10420768;28;19925;-63
2023/03/08 17:42:45;;;;;;;;;;;;;;;1.94;100.00;99217.50;10401734;28;19948;-63
2023/03/08 17:47:48;;;;;;;;;;;;;;;1.73;100.00;99215.91;10418868;28;19926;-63
2023/03/08 17:52:50;;;;;;;;;;;;;;;1.90;100.00;99215.13;10417488;28;19925;-63
2023/03/08 17:57:52;;;;;;;;;;;;;;;1.72;100.00;99212.50;10419373;28;20265;-64
2023/03/08 18:02:55;;;;;;;;;;;;;;;1.89;100.00;99203.16;10419944;28;19933;-63
2023/03/08 18:07:57;;;;;;;;;;;;;;;1.42;100.00;99209.59;10417984;28;19932;-63
2023/03/08 18:12:59;;;;;;;;;;;;;;;1.54;100.00;99203.88;10416128;28;19933;-63
2023/03/08 18:18:02;;;;;;;;;;;;;;;1.52;100.00;99204.84;10416632;28;20395;-63
2023/03/08 18:23:05;;;;;;;;;;;;;;;1.35;100.00;99214.19;10418182;28;20315;-63
2023/03/08 18:28:08;;;;;;;;;;;;;;;1.38;100.00;99216.63;10418885;28;19987;-63
2023/03/08 18:33:10;;;;;;;;;;;;;;;1.40;100.00;99194.19;10415639;28;19932;-63
2023/03/08 18:38:12;;;;;;;;;;;;;;;1.34;100.00;99193.63;10417689;28;19925;-64
2023/03/08 18:43:14;;;;;;;;;;;;;;;1.32;100.00;99188.53;10415754;28;20324;-63
2023/03/08 18:48:17;;;;;;;;;;;;;;;1.27;100.00;99175.84;10417326;28;20027;-63
2023/03/08 18:53:19;;;;;;;;;;;;;;;1.32;100.00;99178.22;10397598;28;19936;-63
2023/03/08 18:58:23;;;;;;;;;;;;;;;1.34;100.00;99173.00;10415939;28;19941;-63
2023/03/08 19:03:25;;;;;;;;;;;;;;;1.22;100.00;99177.78;10417430;28;19925;-63
2023/03/08 19:08:27;;;;;;;;;;;;;;;1.38;100.00;99175.38;10416412;28;19992;-63
2023/03/08 19:13:30;;;;;;;;;;;;;;;1.39;100.00;99173.63;10414629;28;19928;-63
2023/03/08 19:18:32;;;;;;;;;;;;;;;1.34;100.00;99160.91;10416156;28;20376;-63
2023/03/08 19:23:34;;;;;;;;;;;;;;;1.41;100.00;99146.00;10416784;28;19925;-63
2023/03/08 19:28:37;;;;;;;;;;;;;;;1.47;100.00;99149.13;10415252;28;19929;-63
2023/03/08 19:33:40;;;;;;;;;;;;;;;1.62;100.00;99164.81;10412445;28;19987;-63
2023/03/08 19:38:42;;;;;;;;;;;;;;;1.57;100.00;99159.03;10416410;28;19925;-63
2023/03/08 19:43:45;;;;;;;;;;;;;;;1.41;100.00;99152.03;10411629;28;19932;-63
2023/03/08 19:48:47;;;;;;;;;;;;;;;1.55;100.00;99156.53;10415540;28;20404;-63
2023/03/08 19:53:50;;;;;;;;;;;;;;;1.24;100.00;99157.09;10411036;28;19933;-63
2023/03/08 19:58:53;;;;;;;;;;;;;;;1.29;100.00;99165.44;10412535;28;19932;-63
2023/03/08 20:03:55;;;;;;;;;;;;;;;1.27;100.00;99165.53;10398296;28;19929;-63
2023/03/08 20:08:58;;;;;;;;;;;;;;;1.38;100.00;99162.47;10414935;28;19933;-63
2023/03/08 20:14:00;;;;;;;;;;;;;;;1.23;100.00;99158.03;10420644;28;19983;-63
2023/03/08 20:19:02;;;;;;;;;;;;;;;1.21;100.00;99157.22;10423809;28;19932;-63
2023/03/08 20:24:05;;;;;;;;;;;;;;;1.03;100.00;99154.56;10422147;28;20273;-63
2023/03/08 20:29:07;;;;;;;;;;;;;;;1.05;100.00;99150.19;10421934;28;20427;-63
2023/03/08 20:34:09;;;;;;;;;;;;;;;1.11;100.00;99136.22;10404205;28;20407;-63
2023/03/08 20:39:12;;;;;;;;;;;;;;;0.99;100.00;99147.03;10421515;28;20389;-63
2023/03/08 20:44:14;;;;;;;;;;;;;;;1.07;100.00;99135.47;10422559;28;19925;-63
2023/03/08 20:49:16;;;;;;;;;;;;;;;0.81;100.00;99123.78;10422179;28;19979;-62
2023/03/08 20:54:19;;;;;;;;;;;;;;;1.06;100.00;99127.81;10419867;28;19975;-62
2023/03/08 20:59:22;;;;;;;;;;;;;;;1.09;100.00;99128.53;10421411;28;19945;-62
2023/03/08 21:04:25;;;;;;;;;;;;;;;0.87;100.00;99130.38;10422131;28;19939;-62
2023/03/08 21:09:27;;;;;;;;;;;;;;;0.99;100.00;99119.53;10421876;28;19932;-63
2023/03/08 21:14:29;;;;;;;;;;;;;;;1.01;100.00;99122.88;10420797;28;20025;-63
2023/03/08 21:19:32;;;;;;;;;;;;;;;0.97;100.00;99118.75;10419777;28;19929;-63
2023/03/08 21:24:34;;;;;;;;;;;;;;;1.01;100.00;99124.59;10419317;28;20372;-62
2023/03/08 21:29:36;;;;;;;;;;;;;;;1.06;100.00;99120.94;10420453;28;19925;-62
2023/03/08 21:34:38;;;;;;;;;;;;;;;1.13;100.00;99105.16;10418611;28;19925;-62
2023/03/08 21:39:40;;;;;;;;;;;;;;;1.13;100.00;99112.91;10402531;28;19991;-63
2023/03/08 21:44:42;;;;;;;;;;;;;;;1.06;100.00;99108.06;10420086;28;19933;-62
2023/03/08 21:49:44;;;;;;;;;;;;;;;0.99;100.00;99105.81;10419560;28;19932;-62
2023/03/08 21:54:47;;;;;;;;;;;;;;;1.01;100.00;99096.25;10417783;28;19925;-62
2023/03/08 21:59:49;;;;;;;;;;;;;;;1.02;100.00;99088.47;10419002;28;19925;-63
2023/03/08 22:04:51;;;;;;;;;;;;;;;1.06;100.00;99078.84;10401560;28;20414;-62
2023/03/08 22:09:53;;;;;;;;;;;;;;;1.04;100.00;99078.94;10415455;28;19929;-63
2023/03/08 22:14:55;;;;;;;;;;;;;;;1.01;100.00;99079.06;10413295;28;19925;-62
2023/03/08 22:19:57;;;;;;;;;;;;;;;1.12;100.00;99068.25;10418482;28;20418;-62
2023/03/08 22:25:00;;;;;;;;;;;;;;;0.95;100.00;99053.56;10400276;28;19929;-62
2023/03/08 22:30:03;;;;;;;;;;;;;;;1.09;100.00;99050.34;10417133;28;19932;-62
2023/03/08 22:35:05;;;;;;;;;;;;;;;1.20;100.00;99055.03;10416593;28;19929;-62
2023/03/08 22:40:11;;;;;;;;;;;;;;;1.14;100.00;99050.16;10418169;28;19925;-63
2023/03/08 22:45:14;;;;;;;;;;;;;;;1.10;100.00;99049.47;10400274;28;20331;-63
2023/03/08 22:50:16;;;;;;;;;;;;;;;1.28;100.00;99052.94;10417009;28;19925;-63
2023/03/08 22:55:18;;;;;;;;;;;;;;;1.07;100.00;99040.09;10415968;28;19983;-63
2023/03/08 23:00:21;;;;;;;;;;;;;;;1.15;100.00;99039.78;10417396;28;19929;-63
2023/03/08 23:05:23;;;;;;;;;;;;;;;1.04;100.00;99035.13;10415772;28;19932;-63
2023/03/08 23:10:25;;;;;;;;;;;;;;;1.04;100.00;99048.00;10417206;28;19925;-62
2023/03/08 23:15:27;;;;;;;;;;;;;;;1.08;100.00;99056.44;10413848;28;20441;-62
2023/03/08 23:20:29;;;;;;;;;;;;;;;1.17;100.00;99056.00;10415329;28;19936;-62
2023/03/08 23:25:32;;;;;;;;;;;;;;;1.10;100.00;99076.06;10416046;28;20012;-62
2023/03/08 23:30:34;;;;;;;;;;;;;;;0.99;100.00;99075.72;10398160;28;19979;-62
2023/03/08 23:35:36;;;;;;;;;;;;;;;0.88;100.00;99073.63;10414221;28;19925;-62
2023/03/08 23:40:38;;;;;;;;;;;;;;;0.95;100.00;99083.66;10415617;28;20364;-62
2023/03/08 23:45:40;;;;;;;;;;;;;;;0.81;100.00;99076.53;10414605;28;20269;-62
2023/03/08 23:50:43;;;;;;;;;;;;;;;0.82;100.00;99070.50;10394521;28;20009;-62
2023/03/08 23:55:45;;;;;;;;;;;;;;;0.91;100.00;99070.91;10397692;28;19929;-62
